Time,TemperatureF,DewpointF,PressureIn,WindDirection,WindDirectionDegrees,WindSpeedMPH,WindSpeedGustMPH,Humidity,HourlyPrecipIn,Conditions,Clouds,dailyrainin,SoftwareType,DateUTC
2013-06-18 00:05:00,64.4,57.4,29.95,ESE,114,4.6,-999.0,77,0.00,,,0.00,SSEC-RIG,2013-06-18 05:05:00,
2013-06-18 00:10:00,64.4,56.9,29.95,East,101,3.0,-999.0,76,0.00,,,0.00,SSEC-RIG,2013-06-18 05:10:00,
2013-06-18 00:15:00,64.2,57.2,29.95,ESE,109,6.2,-999.0,77,0.00,,,0.00,SSEC-RIG,2013-06-18 05:15:00,
2013-06-18 00:20:00,64.1,57.0,29.95,East,94,7.0,-999.0,77,0.00,,,0.00,SSEC-RIG,2013-06-18 05:20:00,
2013-06-18 00:25:00,64.0,56.6,29.95,East,92,4.3,-999.0,76,0.00,,,0.00,SSEC-RIG,2013-06-18 05:25:00,
2013-06-18 00:30:00,63.9,56.6,29.95,East,81,6.2,-999.0,76,0.00,,,0.00,SSEC-RIG,2013-06-18 05:30:00,
2013-06-18 00:40:00,63.0,55.9,29.95,ENE,74,10.9,-999.0,76,0.00,,,0.00,SSEC-RIG,2013-06-18 05:40:00,
2013-06-18 00:50:00,62.4,55.6,29.95,East,81,14.0,17.3,77,0.00,,,0.00,SSEC-RIG,2013-06-18 05:50:00,
2013-06-18 00:55:00,62.2,55.4,29.96,ENE,70,11.8,16.9,78,0.00,,,0.00,SSEC-RIG,2013-06-18 05:55:00,
2013-06-18 01:00:00,62.0,55.3,29.96,ENE,65,12.6,16.4,78,0.00,,,0.00,SSEC-RIG,2013-06-18 06:00:00,
2013-06-18 01:05:00,61.6,55.3,29.96,ENE,71,12.5,-999.0,79,0.00,,,0.00,SSEC-RIG,2013-06-18 06:05:00,
2013-06-18 01:10:00,61.5,55.0,29.96,ENE,70,11.9,16.3,78,0.00,,,0.00,SSEC-RIG,2013-06-18 06:10:00,
2013-06-18 01:15:00,60.9,54.3,29.96,ENE,75,10.4,16.1,78,0.00,,,0.00,SSEC-RIG,2013-06-18 06:15:00,
2013-06-18 01:20:00,60.7,53.8,29.96,ENE,72,10.4,-999.0,77,0.00,,,0.00,SSEC-RIG,2013-06-18 06:20:00,
2013-06-18 01:25:00,60.3,53.4,29.96,ENE,65,12.1,-999.0,77,0.00,,,0.00,SSEC-RIG,2013-06-18 06:25:00,
2013-06-18 01:30:00,60.1,52.4,29.96,ENE,76,13.6,17.5,75,0.00,,,0.00,SSEC-RIG,2013-06-18 06:30:00,
2013-06-18 01:40:00,59.7,51.2,29.97,ENE,72,12.2,19.9,72,0.00,,,0.00,SSEC-RIG,2013-06-18 06:40:00,
2013-06-18 01:45:00,59.8,51.5,29.97,East,83,10.9,16.1,73,0.00,,,0.00,SSEC-RIG,2013-06-18 06:45:00,
2013-06-18 01:50:00,59.9,51.7,29.97,East,81,9.1,-999.0,73,0.00,,,0.00,SSEC-RIG,2013-06-18 06:50:00,
2013-06-18 02:00:00,59.3,51.9,29.97,East,84,9.4,-999.0,75,0.00,,,0.00,SSEC-RIG,2013-06-18 07:00:00,
2013-06-18 02:05:00,59.3,51.9,29.97,East,85,7.1,-999.0,75,0.00,,,0.00,SSEC-RIG,2013-06-18 07:05:00,
2013-06-18 02:10:00,58.9,51.7,29.97,ENE,70,6.4,-999.0,76,0.00,,,0.00,SSEC-RIG,2013-06-18 07:10:00,
2013-06-18 02:15:00,58.9,51.6,29.97,ENE,76,7.6,-999.0,76,0.00,,,0.00,SSEC-RIG,2013-06-18 07:15:00,
2013-06-18 02:20:00,58.5,51.3,29.97,ENE,77,9.9,-999.0,76,0.00,,,0.00,SSEC-RIG,2013-06-18 07:20:00,
2013-06-18 02:25:00,58.5,51.0,29.97,ENE,78,10.0,-999.0,75,0.00,,,0.00,SSEC-RIG,2013-06-18 07:25:00,
2013-06-18 02:30:00,58.4,50.7,29.97,ENE,72,13.9,17.8,74,0.00,,,0.00,SSEC-RIG,2013-06-18 07:30:00,
2013-06-18 02:35:00,58.2,50.5,29.97,ENE,75,11.1,-999.0,75,0.00,,,0.00,SSEC-RIG,2013-06-18 07:35:00,
2013-06-18 02:40:00,58.2,50.5,29.97,East,79,10.6,17.0,74,0.00,,,0.00,SSEC-RIG,2013-06-18 07:40:00,
2013-06-18 02:45:00,58.1,50.4,29.97,ENE,74,11.5,-999.0,74,0.00,,,0.00,SSEC-RIG,2013-06-18 07:45:00,
2013-06-18 02:50:00,58.0,50.4,29.97,ENE,75,9.1,-999.0,75,0.00,,,0.00,SSEC-RIG,2013-06-18 07:50:00,
2013-06-18 02:55:00,58.0,50.5,29.97,ENE,63,9.4,-999.0,75,0.00,,,0.00,SSEC-RIG,2013-06-18 07:55:00,
2013-06-18 03:00:00,58.0,50.6,29.97,ENE,72,7.3,-999.0,75,0.00,,,0.00,SSEC-RIG,2013-06-18 08:00:00,
2013-06-18 03:05:00,58.1,50.8,29.97,ENE,60,6.5,-999.0,76,0.00,,,0.00,SSEC-RIG,2013-06-18 08:05:00,
2013-06-18 03:10:00,57.6,50.7,29.97,ENE,60,10.8,-999.0,77,0.00,,,0.00,SSEC-RIG,2013-06-18 08:10:00,
2013-06-18 03:15:00,57.6,50.7,29.97,ENE,63,8.7,-999.0,77,0.00,,,0.00,SSEC-RIG,2013-06-18 08:15:00,
2013-06-18 03:20:00,57.6,50.7,29.97,NE,55,9.1,-999.0,77,0.00,,,0.00,SSEC-RIG,2013-06-18 08:20:00,
2013-06-18 03:30:00,57.4,50.5,29.97,ENE,57,10.5,-999.0,77,0.00,,,0.00,SSEC-RIG,2013-06-18 08:30:00,
2013-06-18 03:35:00,57.5,50.5,29.98,ENE,58,8.4,-999.0,76,0.00,,,0.00,SSEC-RIG,2013-06-18 08:35:00,
2013-06-18 03:40:00,57.6,50.4,29.98,ENE,63,7.6,-999.0,76,0.00,,,0.00,SSEC-RIG,2013-06-18 08:40:00,
2013-06-18 03:45:00,57.4,50.4,29.98,NE,52,9.9,-999.0,76,0.00,,,0.00,SSEC-RIG,2013-06-18 08:45:00,
2013-06-18 03:50:00,57.3,50.5,29.98,NE,55,9.1,-999.0,77,0.00,,,0.00,SSEC-RIG,2013-06-18 08:50:00,
2013-06-18 03:55:00,57.3,50.6,29.98,NE,56,7.3,-999.0,77,0.00,,,0.00,SSEC-RIG,2013-06-18 08:55:00,
2013-06-18 04:00:00,57.3,50.6,29.98,ENE,61,7.6,-999.0,77,0.00,,,0.00,SSEC-RIG,2013-06-18 09:00:00,
2013-06-18 04:05:00,57.2,50.4,29.98,ENE,58,8.9,-999.0,77,0.00,,,0.00,SSEC-RIG,2013-06-18 09:05:00,
2013-06-18 04:10:00,57.0,50.3,29.99,NE,56,8.8,-999.0,77,0.00,,,0.00,SSEC-RIG,2013-06-18 09:10:00,
2013-06-18 04:15:00,57.0,50.4,29.99,NE,51,8.4,-999.0,78,0.00,,,0.00,SSEC-RIG,2013-06-18 09:15:00,
2013-06-18 04:20:00,56.8,50.3,29.99,NE,56,10.0,-999.0,78,0.00,,,0.00,SSEC-RIG,2013-06-18 09:20:00,
2013-06-18 04:25:00,56.7,50.3,29.99,ENE,57,8.5,-999.0,78,0.00,,,0.00,SSEC-RIG,2013-06-18 09:25:00,
2013-06-18 04:30:00,56.7,50.3,29.99,NE,56,8.6,-999.0,78,0.00,,,0.00,SSEC-RIG,2013-06-18 09:30:00,
2013-06-18 04:35:00,56.6,50.3,29.99,NE,52,9.4,-999.0,78,0.00,,,0.00,SSEC-RIG,2013-06-18 09:35:00,
2013-06-18 04:40:00,56.5,50.4,29.99,NE,55,11.3,-999.0,79,0.00,,,0.00,SSEC-RIG,2013-06-18 09:40:00,
2013-06-18 04:45:00,56.5,50.4,29.99,NE,47,7.8,-999.0,79,0.00,,,0.00,SSEC-RIG,2013-06-18 09:45:00,
2013-06-18 04:50:00,56.3,50.4,30.00,ENE,57,9.6,-999.0,79,0.00,,,0.00,SSEC-RIG,2013-06-18 09:50:00,
2013-06-18 04:55:00,56.4,50.5,30.00,NE,50,7.1,-999.0,80,0.00,,,0.00,SSEC-RIG,2013-06-18 09:55:00,
2013-06-18 05:05:00,56.4,50.5,30.00,NE,48,8.5,-999.0,80,0.00,,,0.00,SSEC-RIG,2013-06-18 10:05:00,
2013-06-18 05:10:00,56.4,50.5,30.00,NE,48,8.2,-999.0,80,0.00,,,0.00,SSEC-RIG,2013-06-18 10:10:00,
2013-06-18 05:15:00,56.1,50.2,30.00,NE,45,12.8,-999.0,80,0.00,,,0.00,SSEC-RIG,2013-06-18 10:15:00,
2013-06-18 05:20:00,56.1,50.7,30.01,NE,41,10.2,-999.0,81,0.00,,,0.00,SSEC-RIG,2013-06-18 10:20:00,
2013-06-18 05:25:00,56.1,50.7,30.01,NE,45,8.4,-999.0,81,0.00,,,0.00,SSEC-RIG,2013-06-18 10:25:00,
2013-06-18 05:30:00,56.1,50.7,30.01,NE,43,9.6,-999.0,81,0.00,,,0.00,SSEC-RIG,2013-06-18 10:30:00,
2013-06-18 05:40:00,56.0,50.6,30.01,NE,43,9.2,-999.0,81,0.00,,,0.00,SSEC-RIG,2013-06-18 10:40:00,
2013-06-18 05:45:00,55.9,50.7,30.02,NE,39,9.5,-999.0,82,0.00,,,0.00,SSEC-RIG,2013-06-18 10:45:00,
2013-06-18 05:50:00,55.7,50.2,30.02,NE,37,10.8,-999.0,81,0.00,,,0.00,SSEC-RIG,2013-06-18 10:50:00,
2013-06-18 05:55:00,55.9,50.3,30.02,NE,42,10.3,-999.0,81,0.00,,,0.00,SSEC-RIG,2013-06-18 10:55:00,
2013-06-18 06:00:00,55.8,50.3,30.02,NE,48,9.3,-999.0,81,0.00,,,0.00,SSEC-RIG,2013-06-18 11:00:00,
2013-06-18 06:05:00,55.8,50.1,30.02,NE,44,11.6,17.1,80,0.00,,,0.00,SSEC-RIG,2013-06-18 11:05:00,
2013-06-18 06:10:00,55.9,50.3,30.02,NE,41,10.5,16.4,80,0.00,,,0.00,SSEC-RIG,2013-06-18 11:10:00,
2013-06-18 06:15:00,55.8,50.4,30.02,NE,49,9.5,-999.0,81,0.00,,,0.00,SSEC-RIG,2013-06-18 11:15:00,
2013-06-18 06:20:00,55.8,50.5,30.02,NE,46,11.2,16.4,81,0.00,,,0.00,SSEC-RIG,2013-06-18 11:20:00,
2013-06-18 06:25:00,55.8,50.5,30.02,NE,41,12.5,16.4,81,0.00,,,0.00,SSEC-RIG,2013-06-18 11:25:00,
2013-06-18 06:35:00,55.9,50.7,30.03,NE,38,11.6,16.4,82,0.00,,,0.00,SSEC-RIG,2013-06-18 11:35:00,
2013-06-18 06:40:00,55.6,50.3,30.03,NE,42,15.7,18.5,81,0.00,,,0.00,SSEC-RIG,2013-06-18 11:40:00,
2013-06-18 06:45:00,55.7,50.1,30.03,NE,40,14.8,17.6,80,0.00,,,0.00,SSEC-RIG,2013-06-18 11:45:00,
2013-06-18 06:50:00,55.9,50.3,30.03,NE,40,13.4,17.7,81,0.00,,,0.00,SSEC-RIG,2013-06-18 11:50:00,
2013-06-18 06:55:00,55.9,50.2,30.03,NE,44,13.4,18.8,80,0.00,,,0.00,SSEC-RIG,2013-06-18 11:55:00,
2013-06-18 07:00:00,55.7,50.2,30.03,NE,38,15.0,20.5,81,0.00,,,0.00,SSEC-RIG,2013-06-18 12:00:00,
2013-06-18 07:10:00,55.6,50.2,30.04,NE,42,14.9,19.4,81,0.00,,,0.00,SSEC-RIG,2013-06-18 12:10:00,
2013-06-18 07:15:00,55.7,50.1,30.04,NE,50,14.3,17.4,81,0.00,,,0.00,SSEC-RIG,2013-06-18 12:15:00,
2013-06-18 07:20:00,55.8,50.2,30.04,NE,45,12.7,18.3,81,0.00,,,0.00,SSEC-RIG,2013-06-18 12:20:00,
2013-06-18 07:25:00,55.7,50.1,30.04,NE,50,13.8,17.0,80,0.00,,,0.00,SSEC-RIG,2013-06-18 12:25:00,
2013-06-18 07:30:00,56.0,50.4,30.04,NE,55,12.1,-999.0,81,0.00,,,0.00,SSEC-RIG,2013-06-18 12:30:00,
2013-06-18 07:35:00,56.1,50.4,30.04,ENE,57,10.5,-999.0,80,0.00,,,0.00,SSEC-RIG,2013-06-18 12:35:00,
2013-06-18 07:40:00,56.1,50.3,30.04,NE,54,10.9,-999.0,80,0.00,,,0.00,SSEC-RIG,2013-06-18 12:40:00,
2013-06-18 07:45:00,56.5,50.5,30.05,NE,47,10.6,-999.0,79,0.00,,,0.00,SSEC-RIG,2013-06-18 12:45:00,
2013-06-18 07:50:00,56.2,50.0,30.04,NE,48,14.3,18.1,79,0.00,,,0.00,SSEC-RIG,2013-06-18 12:50:00,
2013-06-18 07:55:00,56.6,50.2,30.04,NE,51,12.0,16.6,78,0.00,,,0.00,SSEC-RIG,2013-06-18 12:55:00,
2013-06-18 08:00:00,56.4,50.2,30.04,NE,56,12.6,16.9,78,0.00,,,0.00,SSEC-RIG,2013-06-18 13:00:00,
2013-06-18 08:05:00,56.8,50.6,30.04,NE,51,9.6,-999.0,79,0.00,,,0.00,SSEC-RIG,2013-06-18 13:05:00,
2013-06-18 08:10:00,56.8,50.5,30.04,NE,51,11.2,-999.0,78,0.00,,,0.00,SSEC-RIG,2013-06-18 13:10:00,
2013-06-18 08:15:00,56.7,50.0,30.04,NE,52,13.9,17.0,77,0.00,,,0.00,SSEC-RIG,2013-06-18 13:15:00,
2013-06-18 08:20:00,57.0,50.1,30.04,NE,52,10.2,17.3,77,0.00,,,0.00,SSEC-RIG,2013-06-18 13:20:00,
2013-06-18 08:25:00,57.0,50.5,30.05,NE,52,11.2,-999.0,78,0.00,,,0.00,SSEC-RIG,2013-06-18 13:25:00,
2013-06-18 08:35:00,57.2,50.5,30.05,NE,50,11.8,16.9,77,0.00,,,0.00,SSEC-RIG,2013-06-18 13:35:00,
2013-06-18 08:40:00,57.3,50.4,30.05,ENE,59,11.6,-999.0,77,0.00,,,0.00,SSEC-RIG,2013-06-18 13:40:00,
2013-06-18 08:45:00,57.7,51.3,30.05,NE,38,7.6,-999.0,78,0.00,,,0.00,SSEC-RIG,2013-06-18 13:45:00,
2013-06-18 08:55:00,58.3,51.1,30.05,NE,53,9.8,-999.0,76,0.00,,,0.00,SSEC-RIG,2013-06-18 13:55:00,
2013-06-18 09:00:00,58.3,51.0,30.05,NE,56,7.6,-999.0,76,0.00,,,0.00,SSEC-RIG,2013-06-18 14:00:00,
2013-06-18 09:05:00,58.3,51.3,30.05,NE,48,8.7,-999.0,76,0.00,,,0.00,SSEC-RIG,2013-06-18 14:05:00,
2013-06-18 09:10:00,58.4,51.2,30.05,NE,35,9.9,-999.0,76,0.00,,,0.00,SSEC-RIG,2013-06-18 14:10:00,
2013-06-18 09:15:00,58.7,51.5,30.05,NNE,31,9.0,-999.0,76,0.00,,,0.00,SSEC-RIG,2013-06-18 14:15:00,
2013-06-18 09:20:00,58.8,51.5,30.05,NE,40,9.5,-999.0,76,0.00,,,0.00,SSEC-RIG,2013-06-18 14:20:00,
2013-06-18 09:25:00,59.2,51.9,30.04,NE,37,9.7,-999.0,76,0.00,,,0.00,SSEC-RIG,2013-06-18 14:25:00,
2013-06-18 09:30:00,59.6,52.1,30.04,NE,42,9.0,-999.0,75,0.00,,,0.00,SSEC-RIG,2013-06-18 14:30:00,
2013-06-18 09:35:00,59.4,52.1,30.04,NE,46,9.5,-999.0,76,0.00,,,0.00,SSEC-RIG,2013-06-18 14:35:00,
2013-06-18 09:40:00,59.7,52.1,30.04,NE,43,9.9,-999.0,75,0.00,,,0.00,SSEC-RIG,2013-06-18 14:40:00,
2013-06-18 09:45:00,60.3,52.1,30.04,NE,50,9.0,-999.0,73,0.00,,,0.00,SSEC-RIG,2013-06-18 14:45:00,
2013-06-18 09:55:00,60.5,52.6,30.04,NNE,28,9.2,-999.0,74,0.00,,,0.00,SSEC-RIG,2013-06-18 14:55:00,
2013-06-18 10:00:00,61.3,52.9,30.04,NNE,31,7.3,-999.0,73,0.00,,,0.00,SSEC-RIG,2013-06-18 15:00:00,
2013-06-18 10:05:00,61.0,52.7,30.04,NE,39,8.5,-999.0,73,0.00,,,0.00,SSEC-RIG,2013-06-18 15:05:00,
2013-06-18 10:10:00,61.2,52.9,30.04,NE,35,8.8,-999.0,73,0.00,,,0.00,SSEC-RIG,2013-06-18 15:10:00,
2013-06-18 10:15:00,61.9,53.3,30.04,NNE,29,7.5,-999.0,73,0.00,,,0.00,SSEC-RIG,2013-06-18 15:15:00,
2013-06-18 10:20:00,61.8,53.5,30.04,NNE,32,8.3,-999.0,73,0.00,,,0.00,SSEC-RIG,2013-06-18 15:20:00,
2013-06-18 10:25:00,61.6,53.1,30.04,NE,36,10.4,-999.0,73,0.00,,,0.00,SSEC-RIG,2013-06-18 15:25:00,
2013-06-18 10:30:00,61.6,53.3,30.04,NNE,25,11.0,-999.0,73,0.00,,,0.00,SSEC-RIG,2013-06-18 15:30:00,
2013-06-18 10:35:00,62.0,53.3,30.04,NNE,26,9.5,-999.0,72,0.00,,,0.00,SSEC-RIG,2013-06-18 15:35:00,
2013-06-18 10:40:00,62.3,53.2,30.05,NNE,31,8.4,-999.0,71,0.00,,,0.00,SSEC-RIG,2013-06-18 15:40:00,
2013-06-18 10:45:00,62.2,52.9,30.05,NE,41,11.5,-999.0,70,0.00,,,0.00,SSEC-RIG,2013-06-18 15:45:00,
2013-06-18 10:50:00,62.1,53.0,30.05,NE,37,12.4,17.6,71,0.00,,,0.00,SSEC-RIG,2013-06-18 15:50:00,
2013-06-18 10:55:00,62.1,53.3,30.05,NE,38,11.3,16.5,72,0.00,,,0.00,SSEC-RIG,2013-06-18 15:55:00,
2013-06-18 11:00:00,62.4,53.5,30.05,NE,45,9.5,-999.0,72,0.00,,,0.00,SSEC-RIG,2013-06-18 16:00:00,
2013-06-18 11:05:00,62.3,53.5,30.05,NE,38,10.2,-999.0,72,0.00,,,0.00,SSEC-RIG,2013-06-18 16:05:00,
2013-06-18 11:10:00,62.6,53.8,30.05,NE,42,10.5,16.0,72,0.00,,,0.00,SSEC-RIG,2013-06-18 16:10:00,
2013-06-18 11:15:00,62.8,53.9,30.04,NE,35,11.4,-999.0,72,0.00,,,0.00,SSEC-RIG,2013-06-18 16:15:00,
2013-06-18 11:20:00,63.2,53.5,30.05,NE,50,11.4,-999.0,70,0.00,,,0.00,SSEC-RIG,2013-06-18 16:20:00,
2013-06-18 11:25:00,62.9,53.4,30.05,NE,41,13.2,17.1,70,0.00,,,0.00,SSEC-RIG,2013-06-18 16:25:00,
2013-06-18 11:30:00,63.7,53.8,30.05,NE,40,11.2,16.5,69,0.00,,,0.00,SSEC-RIG,2013-06-18 16:30:00,
2013-06-18 11:35:00,63.5,53.1,30.05,NE,39,12.7,17.2,68,0.00,,,0.00,SSEC-RIG,2013-06-18 16:35:00,
2013-06-18 11:40:00,63.4,52.9,30.04,NE,50,14.6,18.1,68,0.00,,,0.00,SSEC-RIG,2013-06-18 16:40:00,
2013-06-18 11:45:00,64.0,53.1,30.04,NE,53,11.5,-999.0,67,0.00,,,0.00,SSEC-RIG,2013-06-18 16:45:00,
2013-06-18 11:55:00,63.7,52.7,30.04,NE,45,13.3,18.5,67,0.00,,,0.00,SSEC-RIG,2013-06-18 16:55:00,
2013-06-18 12:00:00,63.8,52.9,30.04,ENE,64,12.5,17.9,67,0.00,,,0.00,SSEC-RIG,2013-06-18 17:00:00,
2013-06-18 12:05:00,63.6,52.6,30.04,NE,55,13.8,16.5,66,0.00,,,0.00,SSEC-RIG,2013-06-18 17:05:00,
2013-06-18 12:10:00,63.8,52.9,30.04,NE,48,13.6,18.0,67,0.00,,,0.00,SSEC-RIG,2013-06-18 17:10:00,
2013-06-18 12:20:00,63.7,52.0,30.05,ENE,61,13.1,16.8,65,0.00,,,0.00,SSEC-RIG,2013-06-18 17:20:00,
2013-06-18 12:25:00,63.9,52.2,30.05,NE,54,12.8,16.3,65,0.00,,,0.00,SSEC-RIG,2013-06-18 17:25:00,
2013-06-18 12:30:00,63.9,52.8,30.05,NE,56,12.5,16.0,66,0.00,,,0.00,SSEC-RIG,2013-06-18 17:30:00,
2013-06-18 12:35:00,63.7,52.6,30.05,NE,53,11.2,-999.0,66,0.00,,,0.00,SSEC-RIG,2013-06-18 17:35:00,
2013-06-18 12:40:00,64.7,52.6,30.05,East,79,10.2,-999.0,64,0.00,,,0.00,SSEC-RIG,2013-06-18 17:40:00,
2013-06-18 12:50:00,65.1,53.4,30.05,East,84,14.4,19.7,65,0.00,,,0.00,SSEC-RIG,2013-06-18 17:50:00,
2013-06-18 12:55:00,64.8,53.4,30.05,East,79,12.0,17.9,65,0.00,,,0.00,SSEC-RIG,2013-06-18 17:55:00,
2013-06-18 13:00:00,65.8,53.5,30.05,ENE,72,8.1,-999.0,64,0.00,,,0.00,SSEC-RIG,2013-06-18 18:00:00,
2013-06-18 13:05:00,64.8,53.0,30.05,ENE,65,14.1,18.1,65,0.00,,,0.00,SSEC-RIG,2013-06-18 18:05:00,
2013-06-18 13:10:00,64.1,52.3,30.05,NE,52,12.5,-999.0,65,0.00,,,0.00,SSEC-RIG,2013-06-18 18:10:00,
2013-06-18 13:15:00,64.7,52.9,30.05,ENE,78,9.1,-999.0,65,0.00,,,0.00,SSEC-RIG,2013-06-18 18:15:00,
2013-06-18 13:20:00,64.8,52.2,30.05,ENE,69,11.9,16.8,63,0.00,,,0.00,SSEC-RIG,2013-06-18 18:20:00,
2013-06-18 13:25:00,64.5,52.0,30.05,NE,45,12.5,-999.0,63,0.00,,,0.00,SSEC-RIG,2013-06-18 18:25:00,
2013-06-18 13:30:00,64.7,52.4,30.05,NE,55,9.8,-999.0,63,0.00,,,0.00,SSEC-RIG,2013-06-18 18:30:00,
2013-06-18 13:35:00,65.6,52.5,30.05,ENE,78,11.2,17.6,62,0.00,,,0.00,SSEC-RIG,2013-06-18 18:35:00,
2013-06-18 13:40:00,64.3,52.4,30.06,ENE,69,11.7,16.7,64,0.00,,,0.00,SSEC-RIG,2013-06-18 18:40:00,
2013-06-18 13:45:00,64.0,52.4,30.06,NE,55,12.7,16.8,65,0.00,,,0.00,SSEC-RIG,2013-06-18 18:45:00,
2013-06-18 13:50:00,64.1,52.7,30.06,NE,54,11.2,17.0,65,0.00,,,0.00,SSEC-RIG,2013-06-18 18:50:00,
2013-06-18 13:55:00,64.9,52.6,30.06,NE,44,8.6,-999.0,63,0.00,,,0.00,SSEC-RIG,2013-06-18 18:55:00,
2013-06-18 14:00:00,64.8,52.1,30.06,ENE,57,10.7,-999.0,63,0.00,,,0.00,SSEC-RIG,2013-06-18 19:00:00,
2013-06-18 14:05:00,64.7,52.6,30.06,NE,52,8.7,17.2,64,0.00,,,0.00,SSEC-RIG,2013-06-18 19:05:00,
2013-06-18 14:10:00,65.5,52.9,30.06,ENE,59,7.5,-999.0,63,0.00,,,0.00,SSEC-RIG,2013-06-18 19:10:00,
2013-06-18 14:15:00,64.9,52.0,30.06,NE,54,10.7,-999.0,62,0.00,,,0.00,SSEC-RIG,2013-06-18 19:15:00,
2013-06-18 14:25:00,66.4,53.3,30.06,East,84,6.4,-999.0,62,0.00,,,0.00,SSEC-RIG,2013-06-18 19:25:00,
2013-06-18 14:30:00,67.3,53.6,30.06,East,85,6.4,-999.0,61,0.00,,,0.00,SSEC-RIG,2013-06-18 19:30:00,
2013-06-18 14:35:00,66.9,52.7,30.06,NE,44,5.7,-999.0,59,0.00,,,0.00,SSEC-RIG,2013-06-18 19:35:00,
2013-06-18 14:40:00,67.5,52.4,30.05,ENE,75,6.2,-999.0,57,0.00,,,0.00,SSEC-RIG,2013-06-18 19:40:00,
2013-06-18 14:45:00,67.0,53.1,30.06,East,86,5.9,-999.0,60,0.00,,,0.00,SSEC-RIG,2013-06-18 19:45:00,
2013-06-18 14:50:00,67.4,53.2,30.06,East,94,9.8,16.1,60,0.00,,,0.00,SSEC-RIG,2013-06-18 19:50:00,
2013-06-18 14:55:00,67.0,51.9,30.06,ENE,74,8.6,-999.0,57,0.00,,,0.00,SSEC-RIG,2013-06-18 19:55:00,
2013-06-18 15:05:00,67.2,50.8,30.05,East,79,9.5,-999.0,55,0.00,,,0.00,SSEC-RIG,2013-06-18 20:05:00,
2013-06-18 15:10:00,67.5,52.2,30.05,ESE,112,7.5,-999.0,57,0.00,,,0.00,SSEC-RIG,2013-06-18 20:10:00,
2013-06-18 15:15:00,68.2,51.7,30.05,East,82,9.0,-999.0,55,0.00,,,0.00,SSEC-RIG,2013-06-18 20:15:00,
2013-06-18 15:20:00,67.9,51.7,30.05,ENE,70,8.1,-999.0,55,0.00,,,0.00,SSEC-RIG,2013-06-18 20:20:00,
2013-06-18 15:25:00,68.0,51.1,30.06,ENE,77,7.0,-999.0,54,0.00,,,0.00,SSEC-RIG,2013-06-18 20:25:00,
2013-06-18 15:30:00,68.7,52.1,30.05,ESE,108,5.9,-999.0,55,0.00,,,0.00,SSEC-RIG,2013-06-18 20:30:00,
2013-06-18 15:35:00,68.3,50.7,30.05,ENE,76,9.4,-999.0,53,0.00,,,0.00,SSEC-RIG,2013-06-18 20:35:00,
2013-06-18 15:40:00,67.9,50.5,30.05,ENE,69,8.7,-999.0,53,0.00,,,0.00,SSEC-RIG,2013-06-18 20:40:00,
2013-06-18 15:45:00,68.5,50.2,30.05,NE,47,6.2,-999.0,51,0.00,,,0.00,SSEC-RIG,2013-06-18 20:45:00,
2013-06-18 15:50:00,68.7,50.1,30.05,NNE,23,6.9,-999.0,51,0.00,,,0.00,SSEC-RIG,2013-06-18 20:50:00,
2013-06-18 15:55:00,69.8,51.0,30.05,NE,55,4.2,-999.0,50,0.00,,,0.00,SSEC-RIG,2013-06-18 20:55:00,
2013-06-18 16:00:00,69.7,50.3,30.04,East,79,9.6,-999.0,49,0.00,,,0.00,SSEC-RIG,2013-06-18 21:00:00,
2013-06-18 16:05:00,68.6,49.8,30.04,ENE,73,9.9,-999.0,50,0.00,,,0.00,SSEC-RIG,2013-06-18 21:05:00,
2013-06-18 16:10:00,69.1,50.7,30.04,ENE,67,6.1,-999.0,51,0.00,,,0.00,SSEC-RIG,2013-06-18 21:10:00,
2013-06-18 16:15:00,69.7,50.5,30.04,NE,52,7.1,-999.0,50,0.00,,,0.00,SSEC-RIG,2013-06-18 21:15:00,
2013-06-18 16:20:00,69.7,50.6,30.04,SE,128,3.7,-999.0,50,0.00,,,0.00,SSEC-RIG,2013-06-18 21:20:00,
2013-06-18 16:25:00,69.9,50.8,30.04,East,95,8.2,-999.0,50,0.00,,,0.00,SSEC-RIG,2013-06-18 21:25:00,
2013-06-18 16:30:00,69.2,50.5,30.04,ENE,68,7.5,-999.0,51,0.00,,,0.00,SSEC-RIG,2013-06-18 21:30:00,
2013-06-18 16:40:00,69.6,50.5,30.04,East,90,8.6,-999.0,50,0.00,,,0.00,SSEC-RIG,2013-06-18 21:40:00,
2013-06-18 16:45:00,70.0,51.0,30.04,ENE,77,6.5,-999.0,50,0.00,,,0.00,SSEC-RIG,2013-06-18 21:45:00,
2013-06-18 16:50:00,69.6,50.1,30.03,ENE,73,10.9,-999.0,49,0.00,,,0.00,SSEC-RIG,2013-06-18 21:50:00,
2013-06-18 16:55:00,69.0,50.2,30.03,NE,47,10.4,-999.0,50,0.00,,,0.00,SSEC-RIG,2013-06-18 21:55:00,
2013-06-18 17:00:00,69.0,49.5,30.03,NE,36,8.3,-999.0,49,0.00,,,0.00,SSEC-RIG,2013-06-18 22:00:00,
2013-06-18 17:05:00,69.0,49.8,30.04,NE,55,7.4,-999.0,49,0.00,,,0.00,SSEC-RIG,2013-06-18 22:05:00,
2013-06-18 17:10:00,69.5,50.0,30.03,NE,48,8.7,-999.0,49,0.00,,,0.00,SSEC-RIG,2013-06-18 22:10:00,
2013-06-18 17:15:00,69.2,49.4,30.04,ENE,60,9.8,-999.0,48,0.00,,,0.00,SSEC-RIG,2013-06-18 22:15:00,
2013-06-18 17:20:00,69.3,49.8,30.04,ENE,68,8.9,-999.0,49,0.00,,,0.00,SSEC-RIG,2013-06-18 22:20:00,
2013-06-18 17:25:00,69.7,49.5,30.04,ENE,62,8.1,-999.0,48,0.00,,,0.00,SSEC-RIG,2013-06-18 22:25:00,
2013-06-18 17:30:00,69.4,49.5,30.03,ENE,70,12.0,-999.0,48,0.00,,,0.00,SSEC-RIG,2013-06-18 22:30:00,
2013-06-18 17:40:00,70.1,50.3,30.03,East,90,12.5,17.0,49,0.00,,,0.00,SSEC-RIG,2013-06-18 22:40:00,
2013-06-18 17:45:00,69.8,49.1,30.03,ENE,64,8.8,-999.0,47,0.00,,,0.00,SSEC-RIG,2013-06-18 22:45:00,
2013-06-18 17:50:00,69.2,49.1,30.03,ENE,70,8.4,-999.0,48,0.00,,,0.00,SSEC-RIG,2013-06-18 22:50:00,
2013-06-18 18:00:00,69.6,48.6,30.03,ENE,68,11.1,16.4,46,0.00,,,0.00,SSEC-RIG,2013-06-18 23:00:00,
2013-06-18 18:05:00,69.1,48.0,30.03,NE,49,10.7,-999.0,46,0.00,,,0.00,SSEC-RIG,2013-06-18 23:05:00,
2013-06-18 18:10:00,69.3,47.7,30.03,ENE,64,10.7,-999.0,45,0.00,,,0.00,SSEC-RIG,2013-06-18 23:10:00,
2013-06-18 18:15:00,69.0,47.5,30.03,NE,54,11.2,-999.0,46,0.00,,,0.00,SSEC-RIG,2013-06-18 23:15:00,
2013-06-18 18:25:00,69.1,46.8,30.03,ENE,60,12.8,-999.0,44,0.00,,,0.00,SSEC-RIG,2013-06-18 23:25:00,
2013-06-18 18:30:00,68.8,46.5,30.03,NE,50,10.9,-999.0,44,0.00,,,0.00,SSEC-RIG,2013-06-18 23:30:00,
2013-06-18 18:35:00,68.9,46.1,30.04,NE,51,12.3,-999.0,43,0.00,,,0.00,SSEC-RIG,2013-06-18 23:35:00,
2013-06-18 18:40:00,69.3,46.4,30.04,ENE,61,9.2,-999.0,43,0.00,,,0.00,SSEC-RIG,2013-06-18 23:40:00,
2013-06-18 18:45:00,69.6,46.6,30.04,ENE,75,8.0,-999.0,43,0.00,,,0.00,SSEC-RIG,2013-06-18 23:45:00,
2013-06-18 18:50:00,69.7,46.2,30.04,East,82,7.2,-999.0,42,0.00,,,0.00,SSEC-RIG,2013-06-18 23:50:00,
2013-06-18 18:55:00,69.7,46.4,30.04,East,83,8.2,-999.0,43,0.00,,,0.00,SSEC-RIG,2013-06-18 23:55:00,
2013-06-18 19:00:00,69.6,44.8,30.04,East,80,9.0,-999.0,40,0.00,,,0.00,SSEC-RIG,2013-06-19 00:00:00,
2013-06-18 19:10:00,69.2,43.6,30.04,ENE,75,8.7,-999.0,39,0.00,,,0.00,SSEC-RIG,2013-06-19 00:10:00,
2013-06-18 19:20:00,68.6,43.3,30.04,East,90,14.0,-999.0,39,0.00,,,0.00,SSEC-RIG,2013-06-19 00:20:00,
2013-06-18 19:25:00,68.8,43.4,30.04,East,90,13.3,-999.0,39,0.00,,,0.00,SSEC-RIG,2013-06-19 00:25:00,
2013-06-18 19:30:00,68.3,42.6,30.04,ENE,75,11.5,-999.0,39,0.00,,,0.00,SSEC-RIG,2013-06-19 00:30:00,
2013-06-18 19:35:00,68.4,43.4,30.04,East,79,10.7,16.5,40,0.00,,,0.00,SSEC-RIG,2013-06-19 00:35:00,
2013-06-18 19:45:00,68.1,44.3,30.04,ENE,71,8.9,-999.0,41,0.00,,,0.00,SSEC-RIG,2013-06-19 00:45:00,
2013-06-18 19:50:00,67.8,43.4,30.04,East,79,14.3,17.2,40,0.00,,,0.00,SSEC-RIG,2013-06-19 00:50:00,
2013-06-18 19:55:00,68.0,44.3,30.04,East,80,11.9,-999.0,42,0.00,,,0.00,SSEC-RIG,2013-06-19 00:55:00,
2013-06-18 20:00:00,68.1,44.5,30.04,East,82,9.5,17.0,42,0.00,,,0.00,SSEC-RIG,2013-06-19 01:00:00,
2013-06-18 20:05:00,67.4,43.5,30.04,East,79,14.7,18.1,41,0.00,,,0.00,SSEC-RIG,2013-06-19 01:05:00,
2013-06-18 20:10:00,67.4,43.6,30.04,ENE,74,12.9,17.1,41,0.00,,,0.00,SSEC-RIG,2013-06-19 01:10:00,
2013-06-18 20:15:00,67.1,43.6,30.04,ENE,78,13.1,17.5,42,0.00,,,0.00,SSEC-RIG,2013-06-19 01:15:00,
2013-06-18 20:20:00,67.1,44.2,30.04,East,80,11.2,-999.0,43,0.00,,,0.00,SSEC-RIG,2013-06-19 01:20:00,
2013-06-18 20:25:00,67.2,44.3,30.04,East,88,11.9,-999.0,43,0.00,,,0.00,SSEC-RIG,2013-06-19 01:25:00,
2013-06-18 20:30:00,67.3,45.1,30.04,East,87,9.8,-999.0,44,0.00,,,0.00,SSEC-RIG,2013-06-19 01:30:00,
2013-06-18 20:35:00,66.9,44.2,30.04,East,83,12.9,-999.0,43,0.00,,,0.00,SSEC-RIG,2013-06-19 01:35:00,
2013-06-18 20:40:00,66.6,44.2,30.04,East,83,13.1,16.3,44,0.00,,,0.00,SSEC-RIG,2013-06-19 01:40:00,
2013-06-18 20:45:00,66.5,43.8,30.04,East,83,12.0,16.5,43,0.00,,,0.00,SSEC-RIG,2013-06-19 01:45:00,
2013-06-18 20:50:00,66.7,44.8,30.04,East,92,10.3,-999.0,45,0.00,,,0.00,SSEC-RIG,2013-06-19 01:50:00,
2013-06-18 21:00:00,66.6,46.1,30.05,ESE,105,7.2,-999.0,47,0.00,,,0.00,SSEC-RIG,2013-06-19 02:00:00,
2013-06-18 21:05:00,66.4,45.6,30.05,ESE,105,10.7,-999.0,46,0.00,,,0.00,SSEC-RIG,2013-06-19 02:05:00,
2013-06-18 21:10:00,66.1,46.2,30.05,ESE,105,9.7,-999.0,48,0.00,,,0.00,SSEC-RIG,2013-06-19 02:10:00,
2013-06-18 21:15:00,66.1,46.4,30.05,East,101,8.5,-999.0,48,0.00,,,0.00,SSEC-RIG,2013-06-19 02:15:00,
2013-06-18 21:20:00,65.9,46.7,30.05,ESE,103,9.6,-999.0,49,0.00,,,0.00,SSEC-RIG,2013-06-19 02:20:00,
2013-06-18 21:25:00,65.6,47.2,30.05,ESE,109,9.0,-999.0,51,0.00,,,0.00,SSEC-RIG,2013-06-19 02:25:00,
2013-06-18 21:35:00,65.2,47.2,30.06,ESE,109,9.5,-999.0,51,0.00,,,0.00,SSEC-RIG,2013-06-19 02:35:00,
2013-06-18 21:40:00,65.3,48.4,30.06,ESE,112,8.2,-999.0,54,0.00,,,0.00,SSEC-RIG,2013-06-19 02:40:00,
2013-06-18 21:45:00,65.2,47.9,30.06,ESE,115,7.1,-999.0,53,0.00,,,0.00,SSEC-RIG,2013-06-19 02:45:00,
2013-06-18 21:50:00,65.0,47.7,30.07,ESE,110,8.4,-999.0,53,0.00,,,0.00,SSEC-RIG,2013-06-19 02:50:00,
2013-06-18 21:55:00,65.0,48.5,30.07,ESE,114,8.0,-999.0,54,0.00,,,0.00,SSEC-RIG,2013-06-19 02:55:00,
2013-06-18 22:05:00,64.7,48.9,30.07,ESE,112,5.9,-999.0,56,0.00,,,0.00,SSEC-RIG,2013-06-19 03:05:00,
2013-06-18 22:10:00,64.6,49.0,30.07,ESE,114,7.1,-999.0,56,0.00,,,0.00,SSEC-RIG,2013-06-19 03:10:00,
2013-06-18 22:15:00,64.4,49.0,30.07,ESE,112,6.9,-999.0,56,0.00,,,0.00,SSEC-RIG,2013-06-19 03:15:00,
2013-06-18 22:20:00,64.3,49.0,30.07,ESE,111,6.5,-999.0,57,0.00,,,0.00,SSEC-RIG,2013-06-19 03:20:00,
2013-06-18 22:25:00,64.1,49.3,30.07,ESE,115,7.7,-999.0,58,0.00,,,0.00,SSEC-RIG,2013-06-19 03:25:00,
2013-06-18 22:30:00,63.8,49.3,30.07,ESE,118,9.5,-999.0,58,0.00,,,0.00,SSEC-RIG,2013-06-19 03:30:00,
2013-06-18 22:35:00,63.7,49.7,30.07,ESE,115,8.8,-999.0,59,0.00,,,0.00,SSEC-RIG,2013-06-19 03:35:00,
2013-06-18 22:40:00,63.6,49.8,30.07,ESE,120,9.0,-999.0,60,0.00,,,0.00,SSEC-RIG,2013-06-19 03:40:00,
2013-06-18 22:45:00,63.4,49.4,30.07,ESE,121,10.0,-999.0,59,0.00,,,0.00,SSEC-RIG,2013-06-19 03:45:00,
2013-06-18 22:50:00,63.3,49.4,30.07,ESE,117,9.8,-999.0,60,0.00,,,0.00,SSEC-RIG,2013-06-19 03:50:00,
2013-06-18 22:55:00,63.0,49.4,30.07,ESE,116,10.3,-999.0,60,0.00,,,0.00,SSEC-RIG,2013-06-19 03:55:00,
2013-06-18 23:00:00,62.8,49.5,30.07,ESE,120,10.5,-999.0,61,0.00,,,0.00,SSEC-RIG,2013-06-19 04:00:00,
2013-06-18 23:05:00,62.7,50.4,30.07,SE,124,8.5,-999.0,63,0.00,,,0.00,SSEC-RIG,2013-06-19 04:05:00,
2013-06-18 23:10:00,62.4,50.2,30.07,SE,135,9.4,-999.0,64,0.00,,,0.00,SSEC-RIG,2013-06-19 04:10:00,
2013-06-18 23:15:00,61.9,49.8,30.07,SE,126,7.9,-999.0,63,0.00,,,0.00,SSEC-RIG,2013-06-19 04:15:00,
2013-06-18 23:20:00,61.7,49.6,30.07,SE,127,7.3,-999.0,64,0.00,,,0.00,SSEC-RIG,2013-06-19 04:20:00,
2013-06-18 23:25:00,61.2,48.7,30.07,SE,131,12.4,-999.0,62,0.00,,,0.00,SSEC-RIG,2013-06-19 04:25:00,
2013-06-18 23:30:00,61.3,49.8,30.07,SE,136,10.7,-999.0,65,0.00,,,0.00,SSEC-RIG,2013-06-19 04:30:00,
2013-06-18 23:35:00,61.0,49.4,30.07,SE,138,10.0,-999.0,65,0.00,,,0.00,SSEC-RIG,2013-06-19 04:35:00,
2013-06-18 23:40:00,60.8,49.1,30.07,SE,136,10.9,-999.0,65,0.00,,,0.00,SSEC-RIG,2013-06-19 04:40:00,
2013-06-18 23:45:00,60.7,49.4,30.08,SE,137,9.6,-999.0,65,0.00,,,0.00,SSEC-RIG,2013-06-19 04:45:00,
2013-06-18 23:50:00,60.5,49.5,30.08,SE,141,7.4,-999.0,66,0.00,,,0.00,SSEC-RIG,2013-06-19 04:50:00,
2013-06-18 23:55:00,60.5,49.9,30.08,SE,143,7.4,-999.0,67,0.00,,,0.00,SSEC-RIG,2013-06-19 04:55:00,